sensor_id;sensor_type;location;lat;lon;timestamp;temperature;humidity
63313;DHT22;49442;45.640;13.812;2022-12-28T00:00:08;9.10;99.90
63313;DHT22;49442;45.640;13.812;2022-12-28T00:02:34;9.10;99.90
63313;DHT22;49442;45.640;13.812;2022-12-28T00:05:00;9.10;99.90
63313;DHT22;49442;45.640;13.812;2022-12-28T00:07:25;9.10;99.90
63313;DHT22;49442;45.640;13.812;2022-12-28T00:09:51;9.10;99.90
63313;DHT22;49442;45.640;13.812;2022-12-28T00:12:16;9.10;99.90
63313;DHT22;49442;45.640;13.812;2022-12-28T00:14:42;9.10;99.90
63313;DHT22;49442;45.640;13.812;2022-12-28T00:17:07;9.10;99.90
63313;DHT22;49442;45.640;13.812;2022-12-28T00:19:33;9.10;99.90
63313;DHT22;49442;45.640;13.812;2022-12-28T00:22:01;9.10;99.90
63313;DHT22;49442;45.640;13.812;2022-12-28T00:24:27;9.10;99.90
63313;DHT22;49442;45.640;13.812;2022-12-28T00:26:52;9.20;99.90
63313;DHT22;49442;45.640;13.812;2022-12-28T00:29:21;9.20;99.90
63313;DHT22;49442;45.640;13.812;2022-12-28T00:31:46;9.20;99.90
63313;DHT22;49442;45.640;13.812;2022-12-28T00:34:12;9.20;99.90
63313;DHT22;49442;45.640;13.812;2022-12-28T00:36:38;9.30;99.90
63313;DHT22;49442;45.640;13.812;2022-12-28T00:39:04;9.30;99.90
63313;DHT22;49442;45.640;13.812;2022-12-28T00:41:29;9.30;99.90
63313;DHT22;49442;45.640;13.812;2022-12-28T00:43:55;9.40;99.90
63313;DHT22;49442;45.640;13.812;2022-12-28T00:46:20;9.40;99.90
63313;DHT22;49442;45.640;13.812;2022-12-28T00:48:46;9.40;99.90
63313;DHT22;49442;45.640;13.812;2022-12-28T00:51:15;9.40;99.90
63313;DHT22;49442;45.640;13.812;2022-12-28T00:53:42;9.50;99.90
63313;DHT22;49442;45.640;13.812;2022-12-28T00:56:17;9.40;99.90
63313;DHT22;49442;45.640;13.812;2022-12-28T00:58:43;9.40;99.90
63313;DHT22;49442;45.640;13.812;2022-12-28T01:01:13;9.40;99.90
63313;DHT22;49442;45.640;13.812;2022-12-28T01:03:40;9.00;99.90
63313;DHT22;49442;45.640;13.812;2022-12-28T01:06:06;8.60;99.90
63313;DHT22;49442;45.640;13.812;2022-12-28T01:08:32;8.30;99.90
63313;DHT22;49442;45.640;13.812;2022-12-28T01:10:57;8.10;99.90
63313;DHT22;49442;45.640;13.812;2022-12-28T01:13:23;8.00;99.90
63313;DHT22;49442;45.640;13.812;2022-12-28T01:15:48;7.90;99.90
63313;DHT22;49442;45.640;13.812;2022-12-28T01:18:14;7.80;99.90
63313;DHT22;49442;45.640;13.812;2022-12-28T01:20:42;7.80;99.90
63313;DHT22;49442;45.640;13.812;2022-12-28T01:23:08;7.70;99.90
63313;DHT22;49442;45.640;13.812;2022-12-28T01:25:33;7.70;99.90
63313;DHT22;49442;45.640;13.812;2022-12-28T01:27:59;7.70;99.90
63313;DHT22;49442;45.640;13.812;2022-12-28T01:30:24;7.70;99.90
63313;DHT22;49442;45.640;13.812;2022-12-28T01:32:50;7.70;99.90
63313;DHT22;49442;45.640;13.812;2022-12-28T01:35:15;7.70;99.90
63313;DHT22;49442;45.640;13.812;2022-12-28T01:37:41;7.70;99.90
63313;DHT22;49442;45.640;13.812;2022-12-28T01:40:07;7.70;99.90
63313;DHT22;49442;45.640;13.812;2022-12-28T01:42:33;7.80;99.90
63313;DHT22;49442;45.640;13.812;2022-12-28T01:45:16;7.70;99.90
63313;DHT22;49442;45.640;13.812;2022-12-28T01:47:41;7.70;99.90
63313;DHT22;49442;45.640;13.812;2022-12-28T01:50:08;7.80;99.90
63313;DHT22;49442;45.640;13.812;2022-12-28T01:52:35;7.80;99.90
63313;DHT22;49442;45.640;13.812;2022-12-28T01:57:33;7.90;99.90
63313;DHT22;49442;45.640;13.812;2022-12-28T02:00:09;7.90;99.90
63313;DHT22;49442;45.640;13.812;2022-12-28T02:02:36;7.90;99.90
63313;DHT22;49442;45.640;13.812;2022-12-28T02:05:02;7.90;99.90
63313;DHT22;49442;45.640;13.812;2022-12-28T02:07:49;7.90;99.90
63313;DHT22;49442;45.640;13.812;2022-12-28T02:10:16;7.90;99.90
63313;DHT22;49442;45.640;13.812;2022-12-28T02:12:42;7.90;99.90
63313;DHT22;49442;45.640;13.812;2022-12-28T02:15:11;7.90;99.90
63313;DHT22;49442;45.640;13.812;2022-12-28T02:17:37;7.90;99.90
63313;DHT22;49442;45.640;13.812;2022-12-28T02:20:02;7.90;99.90
63313;DHT22;49442;45.640;13.812;2022-12-28T02:22:48;7.90;99.90
63313;DHT22;49442;45.640;13.812;2022-12-28T02:30:26;7.90;99.90
63313;DHT22;49442;45.640;13.812;2022-12-28T02:32:57;7.90;99.90
63313;DHT22;49442;45.640;13.812;2022-12-28T02:36:07;8.00;99.90
63313;DHT22;49442;45.640;13.812;2022-12-28T02:38:25;8.00;99.90
63313;DHT22;49442;45.640;13.812;2022-12-28T02:41:06;7.90;99.90
63313;DHT22;49442;45.640;13.812;2022-12-28T02:43:33;8.00;99.90
63313;DHT22;49442;45.640;13.812;2022-12-28T02:49:22;7.90;99.90
63313;DHT22;49442;45.640;13.812;2022-12-28T02:59:57;7.90;99.90
63313;DHT22;49442;45.640;13.812;2022-12-28T03:02:42;7.90;99.90
63313;DHT22;49442;45.640;13.812;2022-12-28T03:05:12;7.90;99.90
63313;DHT22;49442;45.640;13.812;2022-12-28T03:07:58;7.90;99.90
63313;DHT22;49442;45.640;13.812;2022-12-28T03:13:35;7.90;99.90
63313;DHT22;49442;45.640;13.812;2022-12-28T03:16:19;7.90;99.90
63313;DHT22;49442;45.640;13.812;2022-12-28T03:18:46;8.00;99.90
63313;DHT22;49442;45.640;13.812;2022-12-28T03:21:48;7.90;99.90
63313;DHT22;49442;45.640;13.812;2022-12-28T03:24:35;7.90;99.90
63313;DHT22;49442;45.640;13.812;2022-12-28T03:27:20;8.00;99.90
63313;DHT22;49442;45.640;13.812;2022-12-28T03:30:10;8.00;99.90
63313;DHT22;49442;45.640;13.812;2022-12-28T03:32:55;8.00;99.90
63313;DHT22;49442;45.640;13.812;2022-12-28T03:35:22;8.00;99.90
63313;DHT22;49442;45.640;13.812;2022-12-28T03:37:55;8.00;99.90
63313;DHT22;49442;45.640;13.812;2022-12-28T03:41:06;8.00;99.90
63313;DHT22;49442;45.640;13.812;2022-12-28T03:43:13;8.00;99.90
63313;DHT22;49442;45.640;13.812;2022-12-28T03:46:01;8.00;99.90
63313;DHT22;49442;45.640;13.812;2022-12-28T03:48:27;8.00;99.90
63313;DHT22;49442;45.640;13.812;2022-12-28T03:50:52;8.00;99.90
63313;DHT22;49442;45.640;13.812;2022-12-28T03:53:22;8.00;99.90
63313;DHT22;49442;45.640;13.812;2022-12-28T03:55:48;8.00;99.90
63313;DHT22;49442;45.640;13.812;2022-12-28T03:58:14;7.90;99.90
63313;DHT22;49442;45.640;13.812;2022-12-28T04:00:39;8.00;99.90
63313;DHT22;49442;45.640;13.812;2022-12-28T04:03:05;8.00;99.90
63313;DHT22;49442;45.640;13.812;2022-12-28T04:05:30;8.00;99.90
63313;DHT22;49442;45.640;13.812;2022-12-28T04:07:56;8.00;99.90
63313;DHT22;49442;45.640;13.812;2022-12-28T04:10:21;8.00;99.90
63313;DHT22;49442;45.640;13.812;2022-12-28T04:12:47;8.10;99.90
63313;DHT22;49442;45.640;13.812;2022-12-28T04:15:12;8.10;99.90
63313;DHT22;49442;45.640;13.812;2022-12-28T04:17:38;8.10;99.90
63313;DHT22;49442;45.640;13.812;2022-12-28T04:20:03;8.10;99.90
63313;DHT22;49442;45.640;13.812;2022-12-28T04:22:29;8.10;99.90
63313;DHT22;49442;45.640;13.812;2022-12-28T04:24:55;8.10;99.90
63313;DHT22;49442;45.640;13.812;2022-12-28T04:27:20;8.10;99.90
63313;DHT22;49442;45.640;13.812;2022-12-28T04:29:48;8.10;99.90
63313;DHT22;49442;45.640;13.812;2022-12-28T04:32:14;8.10;99.90
63313;DHT22;49442;45.640;13.812;2022-12-28T04:34:39;8.10;99.90
63313;DHT22;49442;45.640;13.812;2022-12-28T04:37:05;8.10;99.90
63313;DHT22;49442;45.640;13.812;2022-12-28T04:39:30;8.10;99.90
63313;DHT22;49442;45.640;13.812;2022-12-28T04:41:56;8.20;99.90
63313;DHT22;49442;45.640;13.812;2022-12-28T04:44:22;8.20;99.90
63313;DHT22;49442;45.640;13.812;2022-12-28T04:46:47;8.20;99.90
63313;DHT22;49442;45.640;13.812;2022-12-28T04:49:13;8.30;99.90
63313;DHT22;49442;45.640;13.812;2022-12-28T04:51:38;8.30;99.90
63313;DHT22;49442;45.640;13.812;2022-12-28T04:54:04;8.30;99.90
63313;DHT22;49442;45.640;13.812;2022-12-28T04:56:29;8.30;99.90
63313;DHT22;49442;45.640;13.812;2022-12-28T04:58:56;8.30;99.90
63313;DHT22;49442;45.640;13.812;2022-12-28T05:01:22;8.30;99.90
63313;DHT22;49442;45.640;13.812;2022-12-28T05:03:48;8.30;99.90
63313;DHT22;49442;45.640;13.812;2022-12-28T05:06:17;8.40;99.90
63313;DHT22;49442;45.640;13.812;2022-12-28T05:08:43;8.30;99.90
63313;DHT22;49442;45.640;13.812;2022-12-28T05:11:13;8.30;99.90
63313;DHT22;49442;45.640;13.812;2022-12-28T05:13:39;8.30;99.90
63313;DHT22;49442;45.640;13.812;2022-12-28T05:16:09;8.30;99.90
63313;DHT22;49442;45.640;13.812;2022-12-28T05:18:35;8.40;99.90
63313;DHT22;49442;45.640;13.812;2022-12-28T05:21:05;8.30;99.90
63313;DHT22;49442;45.640;13.812;2022-12-28T05:23:32;8.30;99.90
63313;DHT22;49442;45.640;13.812;2022-12-28T05:25:58;8.30;99.90
63313;DHT22;49442;45.640;13.812;2022-12-28T05:28:24;8.40;99.90
63313;DHT22;49442;45.640;13.812;2022-12-28T05:30:50;8.40;99.90
63313;DHT22;49442;45.640;13.812;2022-12-28T05:33:15;8.40;99.90
63313;DHT22;49442;45.640;13.812;2022-12-28T05:35:41;8.40;99.90
63313;DHT22;49442;45.640;13.812;2022-12-28T05:38:06;8.40;99.90
63313;DHT22;49442;45.640;13.812;2022-12-28T05:40:32;8.50;99.90
63313;DHT22;49442;45.640;13.812;2022-12-28T05:42:58;8.50;99.90
63313;DHT22;49442;45.640;13.812;2022-12-28T05:45:23;8.50;99.90
63313;DHT22;49442;45.640;13.812;2022-12-28T05:47:49;8.50;99.90
63313;DHT22;49442;45.640;13.812;2022-12-28T05:50:14;8.50;99.90
63313;DHT22;49442;45.640;13.812;2022-12-28T05:52:40;8.50;99.90
63313;DHT22;49442;45.640;13.812;2022-12-28T05:55:06;8.50;99.90
63313;DHT22;49442;45.640;13.812;2022-12-28T05:57:31;8.40;99.90
63313;DHT22;49442;45.640;13.812;2022-12-28T05:59:57;8.40;99.90
63313;DHT22;49442;45.640;13.812;2022-12-28T06:02:22;8.40;99.90
63313;DHT22;49442;45.640;13.812;2022-12-28T06:04:54;8.40;99.90
63313;DHT22;49442;45.640;13.812;2022-12-28T06:07:20;8.30;99.90
63313;DHT22;49442;45.640;13.812;2022-12-28T06:09:45;8.30;99.90
63313;DHT22;49442;45.640;13.812;2022-12-28T06:12:11;8.30;99.90
63313;DHT22;49442;45.640;13.812;2022-12-28T06:14:37;8.20;99.90
63313;DHT22;49442;45.640;13.812;2022-12-28T06:17:02;8.20;99.90
63313;DHT22;49442;45.640;13.812;2022-12-28T06:19:28;8.20;99.90
63313;DHT22;49442;45.640;13.812;2022-12-28T06:21:53;8.20;99.90
63313;DHT22;49442;45.640;13.812;2022-12-28T06:24:19;8.20;99.90
63313;DHT22;49442;45.640;13.812;2022-12-28T06:26:44;8.10;99.90
63313;DHT22;49442;45.640;13.812;2022-12-28T06:29:10;8.20;99.90
63313;DHT22;49442;45.640;13.812;2022-12-28T06:31:36;8.10;99.90
63313;DHT22;49442;45.640;13.812;2022-12-28T06:34:03;8.10;99.90
63313;DHT22;49442;45.640;13.812;2022-12-28T06:36:30;8.10;99.90
63313;DHT22;49442;45.640;13.812;2022-12-28T06:38:57;8.10;99.90
63313;DHT22;49442;45.640;13.812;2022-12-28T06:41:22;8.10;99.90
63313;DHT22;49442;45.640;13.812;2022-12-28T06:43:48;8.10;99.90
63313;DHT22;49442;45.640;13.812;2022-12-28T06:46:15;8.20;99.90
63313;DHT22;49442;45.640;13.812;2022-12-28T06:48:41;8.20;99.90
63313;DHT22;49442;45.640;13.812;2022-12-28T06:51:09;8.20;99.90
63313;DHT22;49442;45.640;13.812;2022-12-28T06:53:36;8.30;99.90
63313;DHT22;49442;45.640;13.812;2022-12-28T06:56:05;8.30;99.90
63313;DHT22;49442;45.640;13.812;2022-12-28T06:58:31;8.30;99.90
63313;DHT22;49442;45.640;13.812;2022-12-28T07:01:04;8.30;99.90
63313;DHT22;49442;45.640;13.812;2022-12-28T07:03:29;8.30;99.90
63313;DHT22;49442;45.640;13.812;2022-12-28T07:05:58;8.30;99.90
63313;DHT22;49442;45.640;13.812;2022-12-28T07:08:24;8.30;99.90
63313;DHT22;49442;45.640;13.812;2022-12-28T07:10:49;8.40;99.90
63313;DHT22;49442;45.640;13.812;2022-12-28T07:13:15;8.40;99.90
63313;DHT22;49442;45.640;13.812;2022-12-28T07:15:40;8.40;99.90
63313;DHT22;49442;45.640;13.812;2022-12-28T07:18:06;8.40;99.90
63313;DHT22;49442;45.640;13.812;2022-12-28T07:20:31;8.50;99.90
63313;DHT22;49442;45.640;13.812;2022-12-28T07:22:57;8.50;99.90
63313;DHT22;49442;45.640;13.812;2022-12-28T07:25:22;8.60;99.90
63313;DHT22;49442;45.640;13.812;2022-12-28T07:27:48;8.60;99.90
63313;DHT22;49442;45.640;13.812;2022-12-28T07:30:13;8.60;99.90
63313;DHT22;49442;45.640;13.812;2022-12-28T07:32:39;8.60;99.90
63313;DHT22;49442;45.640;13.812;2022-12-28T07:35:05;8.60;99.90
63313;DHT22;49442;45.640;13.812;2022-12-28T07:37:31;8.60;99.90
63313;DHT22;49442;45.640;13.812;2022-12-28T07:39:57;8.70;99.90
63313;DHT22;49442;45.640;13.812;2022-12-28T07:42:22;8.70;99.90
63313;DHT22;49442;45.640;13.812;2022-12-28T07:44:48;8.70;99.90
63313;DHT22;49442;45.640;13.812;2022-12-28T07:47:14;8.60;99.90
63313;DHT22;49442;45.640;13.812;2022-12-28T07:49:39;8.70;99.90
63313;DHT22;49442;45.640;13.812;2022-12-28T07:52:05;8.70;99.90
63313;DHT22;49442;45.640;13.812;2022-12-28T07:54:31;8.60;99.90
63313;DHT22;49442;45.640;13.812;2022-12-28T07:56:57;8.70;99.90
63313;DHT22;49442;45.640;13.812;2022-12-28T07:59:22;8.70;99.90
63313;DHT22;49442;45.640;13.812;2022-12-28T08:01:48;8.80;99.90
63313;DHT22;49442;45.640;13.812;2022-12-28T08:04:14;8.80;99.90
63313;DHT22;49442;45.640;13.812;2022-12-28T08:06:41;8.80;99.90
63313;DHT22;49442;45.640;13.812;2022-12-28T08:09:09;8.80;99.90
63313;DHT22;49442;45.640;13.812;2022-12-28T08:11:35;8.90;99.90
63313;DHT22;49442;45.640;13.812;2022-12-28T08:14:01;8.90;99.90
63313;DHT22;49442;45.640;13.812;2022-12-28T08:16:29;8.90;99.90
63313;DHT22;49442;45.640;13.812;2022-12-28T08:18:54;8.90;99.90
63313;DHT22;49442;45.640;13.812;2022-12-28T08:23:46;8.90;99.90
63313;DHT22;49442;45.640;13.812;2022-12-28T08:26:13;8.90;99.90
63313;DHT22;49442;45.640;13.812;2022-12-28T08:28:39;9.00;99.90
63313;DHT22;49442;45.640;13.812;2022-12-28T08:31:06;9.00;99.90
63313;DHT22;49442;45.640;13.812;2022-12-28T08:33:32;9.00;99.90
63313;DHT22;49442;45.640;13.812;2022-12-28T08:35:57;9.00;99.90
63313;DHT22;49442;45.640;13.812;2022-12-28T08:38:23;9.10;99.90
63313;DHT22;49442;45.640;13.812;2022-12-28T08:40:56;9.10;99.90
63313;DHT22;49442;45.640;13.812;2022-12-28T08:43:21;9.20;99.90
63313;DHT22;49442;45.640;13.812;2022-12-28T08:48:22;9.30;99.90
63313;DHT22;49442;45.640;13.812;2022-12-28T08:50:47;9.30;99.90
63313;DHT22;49442;45.640;13.812;2022-12-28T08:53:13;9.40;99.90
63313;DHT22;49442;45.640;13.812;2022-12-28T08:55:38;9.40;99.90
63313;DHT22;49442;45.640;13.812;2022-12-28T08:58:04;9.40;99.90
63313;DHT22;49442;45.640;13.812;2022-12-28T09:00:29;9.50;99.90
63313;DHT22;49442;45.640;13.812;2022-12-28T09:02:57;9.50;99.90
63313;DHT22;49442;45.640;13.812;2022-12-28T09:05:23;9.50;99.90
63313;DHT22;49442;45.640;13.812;2022-12-28T09:07:49;9.50;99.90
63313;DHT22;49442;45.640;13.812;2022-12-28T09:10:15;9.60;99.90
63313;DHT22;49442;45.640;13.812;2022-12-28T09:12:41;9.60;99.90
63313;DHT22;49442;45.640;13.812;2022-12-28T09:15:06;9.70;99.90
63313;DHT22;49442;45.640;13.812;2022-12-28T09:17:32;9.70;99.90
63313;DHT22;49442;45.640;13.812;2022-12-28T09:19:57;9.70;99.90
63313;DHT22;49442;45.640;13.812;2022-12-28T09:22:23;9.70;99.90
63313;DHT22;49442;45.640;13.812;2022-12-28T09:24:48;9.80;99.90
63313;DHT22;49442;45.640;13.812;2022-12-28T09:27:14;9.80;99.90
63313;DHT22;49442;45.640;13.812;2022-12-28T09:29:39;9.80;99.90
63313;DHT22;49442;45.640;13.812;2022-12-28T09:32:05;9.80;99.90
63313;DHT22;49442;45.640;13.812;2022-12-28T09:34:30;9.90;99.90
63313;DHT22;49442;45.640;13.812;2022-12-28T09:36:56;9.80;99.90
63313;DHT22;49442;45.640;13.812;2022-12-28T09:39:22;9.90;99.90
63313;DHT22;49442;45.640;13.812;2022-12-28T09:41:50;9.90;99.90
63313;DHT22;49442;45.640;13.812;2022-12-28T09:47:02;10.00;99.90
63313;DHT22;49442;45.640;13.812;2022-12-28T09:54:54;10.40;99.90
63313;DHT22;49442;45.640;13.812;2022-12-28T09:57:19;10.40;99.90
63313;DHT22;49442;45.640;13.812;2022-12-28T09:59:46;10.50;99.90
63313;DHT22;49442;45.640;13.812;2022-12-28T10:02:46;10.60;99.90
63313;DHT22;49442;45.640;13.812;2022-12-28T10:05:04;10.60;99.90
63313;DHT22;49442;45.640;13.812;2022-12-28T10:07:30;10.80;99.90
63313;DHT22;49442;45.640;13.812;2022-12-28T10:09:55;10.90;99.90
63313;DHT22;49442;45.640;13.812;2022-12-28T10:12:21;11.00;99.90
63313;DHT22;49442;45.640;13.812;2022-12-28T10:14:48;11.10;99.90
63313;DHT22;49442;45.640;13.812;2022-12-28T10:17:15;11.10;99.90
63313;DHT22;49442;45.640;13.812;2022-12-28T10:19:45;11.20;99.90
63313;DHT22;49442;45.640;13.812;2022-12-28T10:22:12;11.20;99.90
63313;DHT22;49442;45.640;13.812;2022-12-28T10:24:38;11.20;99.90
63313;DHT22;49442;45.640;13.812;2022-12-28T10:27:04;11.20;99.90
63313;DHT22;49442;45.640;13.812;2022-12-28T10:29:31;11.10;99.90
63313;DHT22;49442;45.640;13.812;2022-12-28T10:32:01;11.10;99.90
63313;DHT22;49442;45.640;13.812;2022-12-28T10:34:27;11.00;99.90
63313;DHT22;49442;45.640;13.812;2022-12-28T10:36:54;11.00;99.90
63313;DHT22;49442;45.640;13.812;2022-12-28T10:39:24;11.00;99.90
63313;DHT22;49442;45.640;13.812;2022-12-28T10:41:50;11.00;99.90
63313;DHT22;49442;45.640;13.812;2022-12-28T10:44:37;11.00;99.90
63313;DHT22;49442;45.640;13.812;2022-12-28T10:47:02;11.00;99.90
63313;DHT22;49442;45.640;13.812;2022-12-28T10:49:36;11.10;99.90
63313;DHT22;49442;45.640;13.812;2022-12-28T10:52:06;11.10;99.90
63313;DHT22;49442;45.640;13.812;2022-12-28T10:54:34;11.20;99.90
63313;DHT22;49442;45.640;13.812;2022-12-28T10:57:00;11.20;99.90
63313;DHT22;49442;45.640;13.812;2022-12-28T10:59:27;11.30;99.90
63313;DHT22;49442;45.640;13.812;2022-12-28T11:01:53;11.30;99.90
63313;DHT22;49442;45.640;13.812;2022-12-28T11:04:22;11.40;99.90
63313;DHT22;49442;45.640;13.812;2022-12-28T11:06:54;11.40;99.90
63313;DHT22;49442;45.640;13.812;2022-12-28T11:11:47;11.50;99.90
63313;DHT22;49442;45.640;13.812;2022-12-28T11:19:44;11.60;99.90
63313;DHT22;49442;45.640;13.812;2022-12-28T11:22:11;11.70;99.90
63313;DHT22;49442;45.640;13.812;2022-12-28T11:24:40;11.70;99.90
63313;DHT22;49442;45.640;13.812;2022-12-28T11:27:08;11.70;99.90
63313;DHT22;49442;45.640;13.812;2022-12-28T11:29:43;11.60;99.90
63313;DHT22;49442;45.640;13.812;2022-12-28T11:32:17;11.60;99.90
63313;DHT22;49442;45.640;13.812;2022-12-28T11:34:44;11.60;99.90
63313;DHT22;49442;45.640;13.812;2022-12-28T11:37:13;11.70;99.90
63313;DHT22;49442;45.640;13.812;2022-12-28T11:39:43;11.70;99.90
63313;DHT22;49442;45.640;13.812;2022-12-28T11:42:09;11.70;99.90
63313;DHT22;49442;45.640;13.812;2022-12-28T11:47:26;11.70;99.90
63313;DHT22;49442;45.640;13.812;2022-12-28T11:49:51;11.70;99.90
63313;DHT22;49442;45.640;13.812;2022-12-28T11:54:59;11.70;99.90
63313;DHT22;49442;45.640;13.812;2022-12-28T11:57:34;11.80;99.90
63313;DHT22;49442;45.640;13.812;2022-12-28T12:02:46;11.70;99.90
63313;DHT22;49442;45.640;13.812;2022-12-28T12:07:56;11.70;99.90
63313;DHT22;49442;45.640;13.812;2022-12-28T12:10:27;11.60;99.90
63313;DHT22;49442;45.640;13.812;2022-12-28T12:12:53;11.60;99.90
63313;DHT22;49442;45.640;13.812;2022-12-28T12:15:31;11.70;99.90
63313;DHT22;49442;45.640;13.812;2022-12-28T12:18:01;11.70;99.90
63313;DHT22;49442;45.640;13.812;2022-12-28T12:20:32;11.70;99.90
63313;DHT22;49442;45.640;13.812;2022-12-28T12:23:08;11.60;99.90
63313;DHT22;49442;45.640;13.812;2022-12-28T12:25:41;11.60;99.90
63313;DHT22;49442;45.640;13.812;2022-12-28T12:28:18;11.60;99.90
63313;DHT22;49442;45.640;13.812;2022-12-28T12:30:44;11.60;99.90
63313;DHT22;49442;45.640;13.812;2022-12-28T12:33:11;11.60;99.90
63313;DHT22;49442;45.640;13.812;2022-12-28T12:35:45;11.50;99.90
63313;DHT22;49442;45.640;13.812;2022-12-28T12:48:17;11.50;99.90
63313;DHT22;49442;45.640;13.812;2022-12-28T12:50:58;11.50;99.90
63313;DHT22;49442;45.640;13.812;2022-12-28T13:03:49;11.30;99.90
63313;DHT22;49442;45.640;13.812;2022-12-28T13:06:15;11.30;99.90
63313;DHT22;49442;45.640;13.812;2022-12-28T13:11:10;11.30;99.90
63313;DHT22;49442;45.640;13.812;2022-12-28T13:13:36;11.30;99.90
63313;DHT22;49442;45.640;13.812;2022-12-28T13:16:04;11.30;99.90
63313;DHT22;49442;45.640;13.812;2022-12-28T13:18:32;11.30;99.90
63313;DHT22;49442;45.640;13.812;2022-12-28T13:20:58;11.30;99.90
63313;DHT22;49442;45.640;13.812;2022-12-28T13:23:25;11.20;99.90
63313;DHT22;49442;45.640;13.812;2022-12-28T13:25:51;11.20;99.90
63313;DHT22;49442;45.640;13.812;2022-12-28T13:28:36;11.20;99.90
63313;DHT22;49442;45.640;13.812;2022-12-28T13:31:15;11.20;99.90
63313;DHT22;49442;45.640;13.812;2022-12-28T13:33:41;11.20;99.90
63313;DHT22;49442;45.640;13.812;2022-12-28T13:38:36;11.10;99.90
63313;DHT22;49442;45.640;13.812;2022-12-28T13:41:01;11.10;99.90
63313;DHT22;49442;45.640;13.812;2022-12-28T13:46:02;11.00;99.90
63313;DHT22;49442;45.640;13.812;2022-12-28T13:48:32;11.00;99.90
63313;DHT22;49442;45.640;13.812;2022-12-28T13:50:59;11.00;99.90
63313;DHT22;49442;45.640;13.812;2022-12-28T13:53:25;11.00;99.90
63313;DHT22;49442;45.640;13.812;2022-12-28T13:55:59;11.00;99.90
63313;DHT22;49442;45.640;13.812;2022-12-28T14:00:51;11.00;99.90
63313;DHT22;49442;45.640;13.812;2022-12-28T14:03:17;11.00;99.90
63313;DHT22;49442;45.640;13.812;2022-12-28T14:05:45;11.00;99.90
63313;DHT22;49442;45.640;13.812;2022-12-28T14:08:12;11.00;99.90
63313;DHT22;49442;45.640;13.812;2022-12-28T14:10:38;11.00;99.90
63313;DHT22;49442;45.640;13.812;2022-12-28T14:13:04;10.90;99.90
63313;DHT22;49442;45.640;13.812;2022-12-28T14:15:31;11.00;99.90
63313;DHT22;49442;45.640;13.812;2022-12-28T14:17:58;10.90;99.90
63313;DHT22;49442;45.640;13.812;2022-12-28T14:20:24;10.90;99.90
63313;DHT22;49442;45.640;13.812;2022-12-28T14:22:49;10.90;99.90
63313;DHT22;49442;45.640;13.812;2022-12-28T14:25:16;10.90;99.90
63313;DHT22;49442;45.640;13.812;2022-12-28T14:27:53;10.90;99.90
63313;DHT22;49442;45.640;13.812;2022-12-28T14:32:47;10.90;99.90
63313;DHT22;49442;45.640;13.812;2022-12-28T14:35:24;10.90;99.90
63313;DHT22;49442;45.640;13.812;2022-12-28T14:37:54;10.90;99.90
63313;DHT22;49442;45.640;13.812;2022-12-28T14:40:22;10.80;99.90
63313;DHT22;49442;45.640;13.812;2022-12-28T14:42:49;10.80;99.90
63313;DHT22;49442;45.640;13.812;2022-12-28T14:48:00;10.80;99.90
63313;DHT22;49442;45.640;13.812;2022-12-28T14:50:27;10.90;99.90
63313;DHT22;49442;45.640;13.812;2022-12-28T14:53:14;10.90;99.90
63313;DHT22;49442;45.640;13.812;2022-12-28T14:58:13;10.80;99.90
63313;DHT22;49442;45.640;13.812;2022-12-28T15:00:52;10.80;99.90
63313;DHT22;49442;45.640;13.812;2022-12-28T15:03:19;10.70;99.90
63313;DHT22;49442;45.640;13.812;2022-12-28T15:05:47;10.70;99.90
63313;DHT22;49442;45.640;13.812;2022-12-28T15:08:13;10.60;99.90
63313;DHT22;49442;45.640;13.812;2022-12-28T15:10:40;10.60;99.90
63313;DHT22;49442;45.640;13.812;2022-12-28T15:13:07;10.60;99.90
63313;DHT22;49442;45.640;13.812;2022-12-28T15:15:33;10.60;99.90
63313;DHT22;49442;45.640;13.812;2022-12-28T15:17:59;10.50;99.90
63313;DHT22;49442;45.640;13.812;2022-12-28T15:20:24;10.50;99.90
63313;DHT22;49442;45.640;13.812;2022-12-28T15:22:50;10.50;99.90
63313;DHT22;49442;45.640;13.812;2022-12-28T15:25:16;10.40;99.90
63313;DHT22;49442;45.640;13.812;2022-12-28T15:27:41;10.40;99.90
63313;DHT22;49442;45.640;13.812;2022-12-28T15:30:10;10.40;99.90
63313;DHT22;49442;45.640;13.812;2022-12-28T15:32:35;10.40;99.90
63313;DHT22;49442;45.640;13.812;2022-12-28T15:35:01;10.30;99.90
63313;DHT22;49442;45.640;13.812;2022-12-28T15:37:27;10.30;99.90
63313;DHT22;49442;45.640;13.812;2022-12-28T15:39:53;10.30;99.90
63313;DHT22;49442;45.640;13.812;2022-12-28T15:42:18;10.30;99.90
63313;DHT22;49442;45.640;13.812;2022-12-28T15:44:44;10.20;99.90
63313;DHT22;49442;45.640;13.812;2022-12-28T15:47:10;10.20;99.90
63313;DHT22;49442;45.640;13.812;2022-12-28T15:49:36;10.20;99.90
63313;DHT22;49442;45.640;13.812;2022-12-28T15:52:01;10.20;99.90
63313;DHT22;49442;45.640;13.812;2022-12-28T15:54:27;10.20;99.90
63313;DHT22;49442;45.640;13.812;2022-12-28T15:56:53;10.20;99.90
63313;DHT22;49442;45.640;13.812;2022-12-28T15:59:19;10.10;99.90
63313;DHT22;49442;45.640;13.812;2022-12-28T16:01:45;10.10;99.90
63313;DHT22;49442;45.640;13.812;2022-12-28T16:04:14;10.10;99.90
63313;DHT22;49442;45.640;13.812;2022-12-28T16:06:40;10.10;99.90
63313;DHT22;49442;45.640;13.812;2022-12-28T16:09:05;10.10;99.90
63313;DHT22;49442;45.640;13.812;2022-12-28T16:11:31;10.00;99.90
63313;DHT22;49442;45.640;13.812;2022-12-28T16:13:59;10.10;99.90
63313;DHT22;49442;45.640;13.812;2022-12-28T16:16:26;10.00;99.90
63313;DHT22;49442;45.640;13.812;2022-12-28T16:18:55;10.00;99.90
63313;DHT22;49442;45.640;13.812;2022-12-28T16:21:25;10.00;99.90
63313;DHT22;49442;45.640;13.812;2022-12-28T16:23:51;10.00;99.90
63313;DHT22;49442;45.640;13.812;2022-12-28T16:26:17;10.00;99.90
63313;DHT22;49442;45.640;13.812;2022-12-28T16:28:45;10.00;99.90
63313;DHT22;49442;45.640;13.812;2022-12-28T16:31:21;10.00;99.90
63313;DHT22;49442;45.640;13.812;2022-12-28T16:33:50;10.00;99.90
63313;DHT22;49442;45.640;13.812;2022-12-28T16:36:16;10.00;99.90
63313;DHT22;49442;45.640;13.812;2022-12-28T16:38:44;10.10;99.90
63313;DHT22;49442;45.640;13.812;2022-12-28T16:41:10;10.10;99.90
63313;DHT22;49442;45.640;13.812;2022-12-28T16:43:36;10.00;99.90
63313;DHT22;49442;45.640;13.812;2022-12-28T16:46:05;10.00;99.90
63313;DHT22;49442;45.640;13.812;2022-12-28T16:48:31;10.00;99.90
63313;DHT22;49442;45.640;13.812;2022-12-28T16:50:57;10.00;99.90
63313;DHT22;49442;45.640;13.812;2022-12-28T16:53:23;10.00;99.90
63313;DHT22;49442;45.640;13.812;2022-12-28T16:55:49;10.00;99.90
63313;DHT22;49442;45.640;13.812;2022-12-28T16:58:15;10.00;99.90
63313;DHT22;49442;45.640;13.812;2022-12-28T17:00:40;9.90;99.90